Time;durP1;ratioP1;P1;durP2;ratioP2;P2;SDS_P1;SDS_P2;PMS_P1;PMS_P2;Temp;Humidity;BMP_temperature;BMP_pressure;BME280_temperature;BME280_humidity;BME280_pressure;Samples;Min_cycle;Max_cycle;Signal;HPM_P1;HPM_P2
2022/09/10 00:02:03;;;;;;;58.53;49.22;;;23.30;60.00;;;;;;5001102;27;92192;-57
2022/09/10 00:04:29;;;;;;;59.47;49.40;;;23.40;60.10;;;;;;5017957;27;89840;-56
2022/09/10 00:06:55;;;;;;;60.08;49.45;;;23.30;60.00;;;;;;4997497;27;91257;-58
2022/09/10 00:09:21;;;;;;;58.83;49.22;;;23.30;60.10;;;;;;4994756;27;92328;-58
2022/09/10 00:11:47;;;;;;;59.25;49.45;;;23.30;60.00;;;;;;4999208;27;92094;-60
2022/09/10 00:14:21;;;;;;;59.55;49.45;;;23.30;60.00;;;;;;5013558;27;90797;-57
2022/09/10 00:16:48;;;;;;;58.90;49.17;;;23.30;60.00;;;;;;5005939;27;89837;-58
2022/09/10 00:19:14;;;;;;;58.78;49.33;;;23.30;60.10;;;;;;5005100;27;91140;-57
2022/09/10 00:21:40;;;;;;;60.05;49.25;;;23.30;60.00;;;;;;5002920;27;91777;-56
2022/09/10 00:24:06;;;;;;;58.78;49.38;;;23.30;60.10;;;;;;5012431;27;90365;-57
2022/09/10 00:26:37;;;;;;;59.15;49.15;;;23.30;60.00;;;;;;5010576;27;89143;-56
2022/09/10 00:29:04;;;;;;;58.35;49.13;;;23.30;60.10;;;;;;5007409;27;91050;-58
2022/09/10 00:31:32;;;;;;;58.47;49.08;;;23.30;60.20;;;;;;5010044;27;90880;-58
2022/09/10 00:33:59;;;;;;;58.85;49.15;;;23.30;60.00;;;;;;5010620;27;91023;-56
2022/09/10 00:36:27;;;;;;;58.15;49.05;;;23.30;60.00;;;;;;4997570;27;90105;-54
2022/09/10 00:38:54;;;;;;;58.35;49.10;;;23.30;60.00;;;;;;4999565;27;90803;-58
2022/09/10 00:41:21;;;;;;;58.92;49.25;;;23.30;60.10;;;;;;5005602;27;96555;-57
2022/09/10 00:43:51;;;;;;;58.47;49.28;;;23.30;60.10;;;;;;5008393;28;90324;-58
2022/09/10 00:47:02;;;;;;;58.40;49.22;;;23.30;60.10;;;;;;5008918;27;90260;-58
2022/09/10 00:49:36;;;;;;;58.75;49.08;;;23.30;60.10;;;;;;4991438;28;91106;-58
2022/09/10 00:52:02;;;;;;;59.08;49.20;;;23.30;60.00;;;;;;5000276;27;96412;-58
2022/09/10 00:54:30;;;;;;;58.75;49.15;;;23.30;60.00;;;;;;5004511;27;97651;-57
2022/09/10 00:57:01;;;;;;;59.42;48.97;;;23.20;59.90;;;;;;5006074;27;90440;-54
2022/09/10 00:59:27;;;;;;;59.55;48.95;;;23.30;60.10;;;;;;5007610;27;92214;-59
2022/09/10 01:01:54;;;;;;;59.00;49.15;;;23.30;60.00;;;;;;5008659;27;91765;-55
2022/09/10 01:04:20;;;;;;;58.97;49.20;;;23.20;60.00;;;;;;5010161;27;90400;-58
2022/09/10 01:06:48;;;;;;;60.45;49.15;;;23.20;60.10;;;;;;5010128;27;90676;-58
2022/09/10 01:09:14;;;;;;;58.85;48.85;;;23.20;60.00;;;;;;5011626;27;92504;-54
2022/09/10 01:12:07;;;;;;;58.50;49.05;;;23.20;60.10;;;;;;5011576;27;90940;-58
2022/09/10 01:14:43;;;;;;;58.83;49.03;;;23.20;60.10;;;;;;5007747;27;89966;-57
2022/09/10 01:17:24;;;;;;;58.72;49.03;;;23.20;60.00;;;;;;5007897;27;89799;-59
2022/09/10 01:19:50;;;;;;;;;;;23.20;60.00;;;;;;5011097;28;91213;-57
2022/09/10 01:22:15;;;;;;;59.60;49.05;;;23.20;60.10;;;;;;5013403;27;90368;-56
2022/09/10 01:25:03;;;;;;;58.45;49.05;;;23.20;60.10;;;;;;5019532;27;90795;-56
2022/09/10 01:28:01;;;;;;;58.35;48.92;;;23.20;60.10;;;;;;5011820;27;90770;-56
2022/09/10 01:30:44;;;;;;;58.83;49.35;;;23.20;60.00;;;;;;5010605;27;91287;-57
2022/09/10 01:33:22;;;;;;;58.45;48.78;;;23.20;60.10;;;;;;5003959;28;91569;-59
2022/09/10 01:35:55;;;;;;;58.33;49.17;;;23.20;60.80;;;;;;5010728;27;90147;-58
2022/09/10 01:38:25;;;;;;;59.22;49.03;;;23.20;60.00;;;;;;4999263;27;91935;-59
2022/09/10 01:40:53;;;;;;;58.15;49.03;;;23.20;60.80;;;;;;5002149;27;91664;-57
2022/09/10 01:43:19;;;;;;;58.10;48.95;;;23.20;60.00;;;;;;5004833;27;91240;-57
2022/09/10 01:45:50;;;;;;;58.30;48.97;;;23.20;60.00;;;;;;5003581;27;91178;-56
2022/09/10 01:48:28;;;;;;;;;;;23.20;60.00;;;;;;5001805;27;93233;-59
2022/09/10 01:51:05;;;;;;;58.33;49.13;;;23.20;60.00;;;;;;5005017;27;92406;-57
2022/09/10 01:53:49;;;;;;;59.55;49.15;;;23.20;59.90;;;;;;5000732;28;92094;-59
2022/09/10 01:56:22;;;;;;;58.55;48.95;;;23.20;60.00;;;;;;4999608;27;90079;-57
2022/09/10 01:58:48;;;;;;;57.92;49.25;;;23.10;60.00;;;;;;5006123;27;91145;-58
2022/09/10 02:01:25;;;;;;;57.58;48.80;;;23.20;60.00;;;;;;4997283;27;90947;-58
2022/09/10 02:03:55;;;;;;;58.25;49.03;;;23.10;60.00;;;;;;5007122;27;90963;-56
2022/09/10 02:06:28;;;;;;;58.45;49.20;;;23.10;60.00;;;;;;5006585;27;90076;-57
2022/09/10 02:08:56;;;;;;;57.90;48.83;;;23.10;60.00;;;;;;5010807;27;92843;-58
2022/09/10 02:11:22;;;;;;;58.58;49.15;;;23.10;60.00;;;;;;4996270;27;92207;-60
2022/09/10 02:13:49;;;;;;;58.25;48.75;;;23.20;60.10;;;;;;5002049;28;92362;-60
2022/09/10 02:16:29;;;;;;;60.10;49.00;;;23.10;60.00;;;;;;5004388;27;94553;-57
2022/09/10 02:18:57;;;;;;;58.72;48.85;;;23.10;60.00;;;;;;5009411;27;89791;-56
2022/09/10 02:21:23;;;;;;;58.42;49.22;;;23.10;60.00;;;;;;5001344;27;97280;-56
2022/09/10 02:23:55;;;;;;;58.15;48.83;;;23.10;60.00;;;;;;5001637;27;91845;-57
2022/09/10 02:26:21;;;;;;;58.00;48.75;;;23.10;60.10;;;;;;5007484;27;89818;-58
2022/09/10 02:28:48;;;;;;;58.65;49.03;;;23.10;60.00;;;;;;4997435;27;90546;-60
2022/09/10 02:31:14;;;;;;;58.22;49.08;;;23.10;60.10;;;;;;5006492;27;91491;-58
2022/09/10 02:33:42;;;;;;;57.75;48.95;;;23.10;60.00;;;;;;5001186;27;92351;-57
2022/09/10 02:36:07;;;;;;;58.15;49.05;;;23.10;60.00;;;;;;5005105;27;91560;-57
2022/09/10 02:38:33;;;;;;;59.05;49.03;;;23.10;60.10;;;;;;5005460;27;96211;-58
2022/09/10 02:40:59;;;;;;;58.72;48.97;;;23.00;60.00;;;;;;5008292;27;92027;-56
2022/09/10 02:43:26;;;;;;;58.08;48.83;;;23.10;60.10;;;;;;5000157;27;91258;-56
2022/09/10 02:45:56;;;;;;;58.10;48.95;;;23.10;60.10;;;;;;5007871;27;90268;-59
2022/09/10 02:48:25;;;;;;;57.85;48.92;;;23.00;60.10;;;;;;5010449;27;90041;-59
2022/09/10 02:50:52;;;;;;;58.17;49.10;;;23.00;60.10;;;;;;5004138;27;91197;-56
2022/09/10 02:53:19;;;;;;;58.25;49.08;;;23.00;60.10;;;;;;5003187;27;91031;-60
2022/09/10 02:55:46;;;;;;;59.85;49.28;;;23.10;60.10;;;;;;5000249;27;90790;-57
2022/09/10 02:58:13;;;;;;;58.25;48.95;;;23.00;60.20;;;;;;5010163;27;89284;-56
2022/09/10 03:00:39;;;;;;;58.45;48.97;;;23.10;60.30;;;;;;4999635;27;92068;-58
2022/09/10 03:03:05;;;;;;;58.17;49.05;;;23.10;60.20;;;;;;5006523;27;90179;-56
2022/09/10 03:05:31;;;;;;;58.65;48.95;;;23.10;60.20;;;;;;5011870;27;91431;-55
2022/09/10 03:07:57;;;;;;;58.20;48.95;;;23.10;60.30;;;;;;5003773;27;91207;-57
2022/09/10 03:10:23;;;;;;;58.00;48.90;;;23.00;60.20;;;;;;4999126;27;91041;-57
2022/09/10 03:12:49;;;;;;;59.10;49.22;;;23.00;60.10;;;;;;4999664;27;93103;-57
2022/09/10 03:15:15;;;;;;;58.33;48.97;;;23.10;60.30;;;;;;5001292;27;91603;-57
2022/09/10 03:17:40;;;;;;;58.65;49.03;;;23.10;60.20;;;;;;5012932;28;89916;-59
2022/09/10 03:20:07;;;;;;;58.03;49.05;;;23.00;60.20;;;;;;4996395;28;91039;-56
2022/09/10 03:22:32;;;;;;;60.15;49.42;;;23.10;60.20;;;;;;5009443;27;91545;-56
2022/09/10 03:24:58;;;;;;;58.00;48.90;;;23.00;60.20;;;;;;5006047;27;91280;-55
2022/09/10 03:27:25;;;;;;;58.25;48.95;;;23.00;60.20;;;;;;5004918;28;91597;-55
2022/09/10 03:29:50;;;;;;;57.80;48.85;;;23.00;60.30;;;;;;4999377;27;92359;-57
2022/09/10 03:32:16;;;;;;;58.08;48.97;;;23.00;60.20;;;;;;5001358;28;95490;-60
2022/09/10 03:34:43;;;;;;;57.70;48.88;;;23.00;60.20;;;;;;5010809;27;89663;-55
2022/09/10 03:37:08;;;;;;;59.08;48.95;;;23.00;60.20;;;;;;5003231;27;91929;-56
2022/09/10 03:39:34;;;;;;;57.67;48.78;;;23.00;60.20;;;;;;4999464;27;91015;-57
2022/09/10 03:42:00;;;;;;;59.30;49.28;;;23.00;60.20;;;;;;5008149;27;95920;-57
2022/09/10 03:44:26;;;;;;;57.97;48.75;;;22.90;60.20;;;;;;5004186;27;90179;-58
2022/09/10 03:46:51;;;;;;;58.08;49.05;;;23.00;60.20;;;;;;5005634;27;89948;-57
2022/09/10 03:49:17;;;;;;;58.72;48.83;;;23.00;60.20;;;;;;5006728;28;91252;-57
2022/09/10 03:51:42;;;;;;;57.78;48.72;;;23.00;60.30;;;;;;5008742;27;92103;-57
2022/09/10 03:54:08;;;;;;;58.03;49.03;;;22.90;60.20;;;;;;5007827;28;90717;-59
2022/09/10 03:56:34;;;;;;;58.40;49.05;;;22.90;60.20;;;;;;5011344;27;90312;-56
2022/09/10 03:59:00;;;;;;;58.22;48.90;;;22.90;60.20;;;;;;5008784;27;94526;-54
2022/09/10 04:01:25;;;;;;;58.40;49.15;;;22.90;60.20;;;;;;5002889;27;91265;-58
2022/09/10 04:03:55;;;;;;;58.22;48.92;;;22.90;60.20;;;;;;5010679;27;90919;-55
2022/09/10 04:06:21;;;;;;;58.30;49.03;;;22.90;60.20;;;;;;4999025;27;89617;-55
2022/09/10 04:08:51;;;;;;;58.67;49.22;;;23.00;60.20;;;;;;5000389;27;91115;-55
2022/09/10 04:11:18;;;;;;;58.83;48.95;;;22.90;60.20;;;;;;5003116;27;91269;-57
2022/09/10 04:13:45;;;;;;;58.63;49.00;;;23.00;60.20;;;;;;5002423;27;91711;-58
2022/09/10 04:16:11;;;;;;;57.75;48.80;;;22.90;60.10;;;;;;5001960;27;90186;-57
2022/09/10 04:18:37;;;;;;;58.05;49.08;;;23.00;60.20;;;;;;5007421;27;91507;-58
2022/09/10 04:21:03;;;;;;;59.20;48.78;;;23.00;60.10;;;;;;5010339;27;91855;-56
2022/09/10 04:23:29;;;;;;;57.35;48.55;;;22.90;60.70;;;;;;5007237;27;90108;-57
2022/09/10 04:25:55;;;;;;;57.42;48.53;;;22.90;60.20;;;;;;5005235;28;90130;-57
2022/09/10 04:28:22;;;;;;;57.85;48.83;;;22.90;60.20;;;;;;5005397;27;91341;-59
2022/09/10 04:30:50;;;;;;;57.60;48.75;;;22.90;60.10;;;;;;5006189;27;91404;-58
2022/09/10 04:33:16;;;;;;;59.10;49.10;;;22.90;60.20;;;;;;5008418;27;90346;-59
2022/09/10 04:35:42;;;;;;;58.00;49.05;;;22.80;60.20;;;;;;5008450;27;91918;-59
2022/09/10 04:38:08;;;;;;;58.35;48.95;;;22.90;60.30;;;;;;5006214;27;91327;-57
2022/09/10 04:40:34;;;;;;;57.90;48.80;;;22.90;60.30;;;;;;5006073;28;90886;-56
2022/09/10 04:43:00;;;;;;;57.97;48.95;;;22.90;60.20;;;;;;5009215;27;91008;-55
2022/09/10 04:45:26;;;;;;;58.15;48.75;;;22.90;60.20;;;;;;5013511;27;90276;-59
2022/09/10 04:47:53;;;;;;;58.75;48.88;;;22.90;60.20;;;;;;5007636;27;91048;-59
2022/09/10 04:50:19;;;;;;;58.15;49.15;;;22.90;60.20;;;;;;5009860;27;91242;-58
2022/09/10 04:52:45;;;;;;;57.95;48.95;;;22.90;60.20;;;;;;5008972;27;90673;-56
2022/09/10 04:55:11;;;;;;;57.85;49.13;;;22.90;60.20;;;;;;5013455;28;90551;-57
2022/09/10 04:57:37;;;;;;;57.67;48.80;;;22.80;60.00;;;;;;4997500;27;91975;-57
2022/09/10 05:00:08;;;;;;;57.75;48.95;;;22.90;60.10;;;;;;5007017;28;91352;-56
2022/09/10 05:02:35;;;;;;;57.95;48.95;;;22.90;60.20;;;;;;5004749;27;93451;-56
2022/09/10 05:05:01;;;;;;;57.92;49.05;;;22.80;60.10;;;;;;5008088;27;91908;-58
2022/09/10 05:07:26;;;;;;;58.55;49.10;;;22.80;60.10;;;;;;5013589;27;92173;-57
2022/09/10 05:09:52;;;;;;;58.85;48.90;;;22.90;60.90;;;;;;5013326;27;93432;-55
2022/09/10 05:12:18;;;;;;;58.25;49.08;;;22.90;60.10;;;;;;4997496;27;91895;-56
2022/09/10 05:14:44;;;;;;;58.65;49.10;;;22.80;60.10;;;;;;5005326;27;90495;-57
2022/09/10 05:17:10;;;;;;;58.88;49.13;;;22.80;60.00;;;;;;5007715;27;91761;-59
2022/09/10 05:19:35;;;;;;;58.35;49.35;;;22.80;60.10;;;;;;5003261;27;91595;-58
2022/09/10 05:22:01;;;;;;;57.70;49.03;;;22.90;60.10;;;;;;5012813;27;89975;-59
2022/09/10 05:24:27;;;;;;;57.80;48.95;;;22.80;60.00;;;;;;5010675;27;93851;-59
2022/09/10 05:26:52;;;;;;;58.30;48.83;;;22.80;60.00;;;;;;5012106;27;91370;-59
2022/09/10 05:29:18;;;;;;;57.90;48.85;;;22.90;60.10;;;;;;5006710;27;91579;-58
2022/09/10 05:31:44;;;;;;;58.17;49.13;;;22.80;60.10;;;;;;5003146;27;90941;-60
2022/09/10 05:34:09;;;;;;;58.60;48.90;;;22.80;60.10;;;;;;5011150;27;90576;-55
2022/09/10 05:36:35;;;;;;;58.15;49.03;;;22.80;60.00;;;;;;5010029;27;91628;-56
2022/09/10 05:39:02;;;;;;;58.13;49.05;;;22.80;60.00;;;;;;5004007;27;90865;-58
2022/09/10 05:41:29;;;;;;;58.03;48.85;;;22.80;60.00;;;;;;5003484;27;90118;-56
2022/09/10 05:43:56;;;;;;;58.78;48.85;;;22.80;60.00;;;;;;5011236;27;95238;-57
2022/09/10 05:46:23;;;;;;;58.25;49.15;;;22.80;60.00;;;;;;5005599;27;91488;-60
2022/09/10 05:48:49;;;;;;;58.72;49.25;;;22.80;60.10;;;;;;5000648;27;91326;-58
2022/09/10 05:51:16;;;;;;;57.63;48.85;;;22.80;60.00;;;;;;5010020;27;99277;-57
2022/09/10 05:53:42;;;;;;;57.72;49.17;;;22.80;60.10;;;;;;5014736;27;91324;-58
2022/09/10 05:56:08;;;;;;;58.25;48.83;;;22.80;60.10;;;;;;5003820;27;92516;-58
2022/09/10 05:58:33;;;;;;;58.30;49.38;;;22.80;60.10;;;;;;5006980;28;92610;-55
2022/09/10 06:01:00;;;;;;;57.67;48.88;;;22.70;60.00;;;;;;5004857;27;92126;-56
2022/09/10 06:03:25;;;;;;;57.95;48.88;;;22.70;60.20;;;;;;5005513;27;91892;-55
2022/09/10 06:05:52;;;;;;;58.33;49.17;;;22.80;60.10;;;;;;5001141;27;91477;-56
2022/09/10 06:08:20;;;;;;;58.22;49.22;;;22.70;60.00;;;;;;5000772;27;92180;-57
2022/09/10 06:11:01;;;;;;;58.28;49.15;;;22.80;60.00;;;;;;4999517;27;90302;-57
2022/09/10 06:13:27;;;;;;;;;;;22.80;60.00;;;;;;5003571;27;89050;-56
2022/09/10 06:15:53;;;;;;;57.70;49.03;;;22.70;59.90;;;;;;4999492;28;97423;-57
2022/09/10 06:18:19;;;;;;;58.88;49.55;;;22.80;60.00;;;;;;4999979;28;90934;-55
2022/09/10 06:20:49;;;;;;;58.50;49.35;;;22.80;60.10;;;;;;5005388;27;91535;-57
2022/09/10 06:23:16;;;;;;;58.13;49.35;;;22.70;60.30;;;;;;5014761;28;90620;-57
2022/09/10 06:25:41;;;;;;;58.20;49.17;;;22.80;60.30;;;;;;5007519;27;91052;-56
2022/09/10 06:28:08;;;;;;;58.85;49.55;;;22.80;60.20;;;;;;5004083;27;90083;-59
2022/09/10 06:30:34;;;;;;;58.42;49.67;;;22.80;60.10;;;;;;5008042;28;90101;-57
2022/09/10 06:33:00;;;;;;;58.95;49.25;;;22.70;60.10;;;;;;5010705;28;92717;-57
2022/09/10 06:35:26;;;;;;;58.95;48.92;;;22.80;60.10;;;;;;5005373;28;90214;-57
2022/09/10 06:37:53;;;;;;;59.35;49.53;;;22.80;60.20;;;;;;5002352;27;91080;-57
2022/09/10 06:40:18;;;;;;;59.30;49.42;;;22.80;60.10;;;;;;5001830;27;89937;-57
2022/09/10 06:42:44;;;;;;;59.60;49.33;;;22.80;60.10;;;;;;5003041;27;89914;-58
2022/09/10 06:45:10;;;;;;;59.28;49.80;;;22.80;60.10;;;;;;5001157;27;93106;-58
2022/09/10 06:47:36;;;;;;;58.47;49.13;;;22.80;60.10;;;;;;5010790;27;91845;-57
2022/09/10 06:50:03;;;;;;;58.97;49.22;;;22.80;60.20;;;;;;5005418;27;90385;-59
2022/09/10 06:52:29;;;;;;;58.75;49.05;;;22.80;60.20;;;;;;5008668;27;89909;-58
2022/09/10 06:54:55;;;;;;;59.40;49.72;;;22.80;60.10;;;;;;4998588;27;91036;-57
2022/09/10 06:57:24;;;;;;;59.67;49.53;;;22.80;60.10;;;;;;5001515;27;90974;-58
2022/09/10 06:59:50;;;;;;;58.42;49.30;;;22.80;60.10;;;;;;4999351;27;91095;-58
2022/09/10 07:02:16;;;;;;;58.92;49.58;;;22.80;60.10;;;;;;5007519;27;91650;-57
2022/09/10 07:04:42;;;;;;;59.83;49.67;;;22.80;60.10;;;;;;5000121;27;91666;-60
2022/09/10 07:07:08;;;;;;;58.55;49.08;;;22.80;60.00;;;;;;5007994;27;91281;-60
2022/09/10 07:09:34;;;;;;;58.92;49.45;;;22.90;60.20;;;;;;5002682;27;91869;-60
2022/09/10 07:12:01;;;;;;;58.83;49.65;;;22.80;60.10;;;;;;4993948;27;94505;-60
2022/09/10 07:14:27;;;;;;;59.42;49.65;;;22.80;60.00;;;;;;4991239;27;91807;-60
2022/09/10 07:16:54;;;;;;;58.55;49.33;;;22.90;60.00;;;;;;5004452;28;92297;-59
2022/09/10 07:19:20;;;;;;;58.88;49.65;;;22.80;60.00;;;;;;5002153;27;96848;-57
2022/09/10 07:21:45;;;;;;;59.55;49.47;;;22.80;60.00;;;;;;5008652;27;92692;-58
2022/09/10 07:24:11;;;;;;;60.05;49.95;;;22.80;60.10;;;;;;5006579;28;92894;-58
2022/09/10 07:26:37;;;;;;;59.05;49.50;;;22.80;59.90;;;;;;4991784;27;91650;-56
2022/09/10 07:29:03;;;;;;;59.45;49.25;;;22.90;60.00;;;;;;5002102;27;90556;-59
2022/09/10 07:31:32;;;;;;;59.88;49.60;;;22.90;60.10;;;;;;5005867;28;90058;-59
2022/09/10 07:34:00;;;;;;;59.08;49.95;;;22.90;60.00;;;;;;5001945;28;93595;-58
2022/09/10 07:36:27;;;;;;;61.00;50.42;;;22.90;60.00;;;;;;4985532;27;96754;-58
2022/09/10 07:38:56;;;;;;;59.05;49.55;;;22.90;59.90;;;;;;4996661;27;91401;-60
2022/09/10 07:41:22;;;;;;;60.05;49.75;;;22.90;60.00;;;;;;4996571;27;91599;-55
2022/09/10 07:43:52;;;;;;;60.17;50.60;;;22.90;59.90;;;;;;4998470;28;95218;-59
2022/09/10 07:46:19;;;;;;;62.83;50.35;;;22.90;59.80;;;;;;4998840;27;90782;-55
2022/09/10 07:48:52;;;;;;;60.40;49.95;;;22.90;59.90;;;;;;5008763;28;94253;-59
2022/09/10 07:51:18;;;;;;;60.00;50.40;;;23.00;60.00;;;;;;5005822;28;91136;-58
2022/09/10 07:53:54;;;;;;;62.67;51.80;;;22.90;60.00;;;;;;4992844;28;91596;-58
2022/09/10 07:56:22;;;;;;;60.40;50.20;;;22.90;59.90;;;;;;5013556;28;90989;-57
2022/09/10 07:58:47;;;;;;;61.63;51.30;;;23.00;59.90;;;;;;5008523;27;96332;-58
2022/09/10 08:01:13;;;;;;;60.45;50.70;;;23.00;59.80;;;;;;5009727;27;90159;-59
2022/09/10 08:03:39;;;;;;;62.58;51.85;;;23.00;59.80;;;;;;5008484;28;91193;-55
2022/09/10 08:06:07;;;;;;;60.67;50.70;;;23.00;59.80;;;;;;5013210;27;90922;-61
2022/09/10 08:08:35;;;;;;;62.75;52.03;;;22.90;59.80;;;;;;5005676;27;94849;-54
2022/09/10 08:11:16;;;;;;;63.42;52.00;;;23.00;59.80;;;;;;5010130;28;89928;-56
2022/09/10 08:13:44;;;;;;;61.83;51.53;;;23.00;59.70;;;;;;5003168;28;92328;-56
2022/09/10 08:16:12;;;;;;;61.47;51.63;;;23.00;59.80;;;;;;5010116;28;91731;-59
2022/09/10 08:18:38;;;;;;;61.08;50.85;;;23.00;59.80;;;;;;5007838;27;91132;-59
2022/09/10 08:21:07;;;;;;;61.00;50.35;;;23.00;59.70;;;;;;5014011;27;91969;-58
2022/09/10 08:23:33;;;;;;;60.92;50.40;;;23.00;59.70;;;;;;5015091;28;92552;-59
2022/09/10 08:25:58;;;;;;;60.35;51.03;;;23.00;59.60;;;;;;5016050;27;91919;-57
2022/09/10 08:28:26;;;;;;;60.05;50.70;;;23.10;59.50;;;;;;5004820;27;90249;-55
2022/09/10 08:30:55;;;;;;;61.97;51.75;;;23.10;59.60;;;;;;5010931;27;89597;-59
2022/09/10 08:33:21;;;;;;;60.58;50.42;;;23.10;59.40;;;;;;5014949;28;91107;-60
2022/09/10 08:35:52;;;;;;;60.95;50.75;;;23.20;59.70;;;;;;5015434;28;90973;-58
2022/09/10 08:38:19;;;;;;;60.97;51.15;;;23.20;59.50;;;;;;5005985;27;90580;-59
2022/09/10 08:40:45;;;;;;;59.83;50.45;;;23.20;59.40;;;;;;5006005;27;89827;-59
2022/09/10 08:43:12;;;;;;;61.58;51.35;;;23.20;59.40;;;;;;5009748;28;91605;-57
2022/09/10 08:45:38;;;;;;;60.42;51.10;;;23.20;59.40;;;;;;5013248;27;94161;-57
2022/09/10 08:48:16;;;;;;;61.33;51.08;;;23.20;59.30;;;;;;5010148;28;91675;-56
2022/09/10 08:50:54;;;;;;;61.25;51.03;;;23.20;59.40;;;;;;5007142;28;89914;-58
2022/09/10 08:53:24;;;;;;;60.10;50.70;;;23.20;59.30;;;;;;5018425;28;91296;-56
2022/09/10 08:55:58;;;;;;;62.40;50.88;;;23.20;59.30;;;;;;5011996;28;91919;-58
2022/09/10 08:59:02;;;;;;;61.45;51.33;;;23.30;59.20;;;;;;5010203;28;94096;-60
2022/09/10 09:01:39;;;;;;;60.35;50.70;;;23.30;59.20;;;;;;4990733;28;90503;-58
2022/09/10 09:04:16;;;;;;;61.83;51.92;;;23.30;59.30;;;;;;5013142;28;90108;-58
2022/09/10 09:06:54;;;;;;;62.20;50.67;;;23.30;59.20;;;;;;5012482;28;89912;-57
2022/09/10 09:09:21;;;;;;;60.80;50.63;;;23.30;59.20;;;;;;5012009;28;90037;-59
2022/09/10 09:12:04;;;;;;;61.40;51.25;;;23.30;59.10;;;;;;5008458;28;90248;-59
2022/09/10 09:14:47;;;;;;;63.50;51.85;;;23.40;59.10;;;;;;5006106;28;92465;-59
2022/09/10 09:17:57;;;;;;;61.63;51.35;;;23.40;59.00;;;;;;5007532;28;92598;-59
2022/09/10 09:20:45;;;;;;;61.95;51.60;;;23.40;59.00;;;;;;5007724;28;89941;-58
2022/09/10 09:23:40;;;;;;;62.47;51.35;;;23.40;59.00;;;;;;5006964;28;93269;-59
2022/09/10 09:26:11;;;;;;;60.35;50.72;;;23.40;59.00;;;;;;5009321;28;91056;-57
2022/09/10 09:29:09;;;;;;;62.78;51.33;;;23.40;58.90;;;;;;5002783;28;90931;-57
2022/09/10 11:33:39;;;;;;;63.35;52.35;;;23.80;58.80;;;;;;3552878;28;99323;-58
2022/09/10 11:36:14;;;;;;;63.45;51.92;;;23.80;58.30;;;;;;4992816;27;91018;-56
2022/09/10 11:38:59;;;;;;;62.72;51.92;;;23.80;58.20;;;;;;4998297;27;91111;-56
2022/09/10 11:41:28;;;;;;;62.28;51.85;;;23.80;58.10;;;;;;4997806;27;93203;-52
2022/09/10 11:43:57;;;;;;;62.05;51.65;;;23.80;58.70;;;;;;4997532;28;97325;-56
2022/09/10 11:46:32;;;;;;;62.90;51.63;;;23.90;58.20;;;;;;5002865;28;92656;-56
2022/09/10 11:49:11;;;;;;;63.72;52.13;;;23.90;58.20;;;;;;4997387;28;91287;-57
2022/09/10 11:51:39;;;;;;;62.67;51.75;;;23.90;58.20;;;;;;4993281;28;96241;-55
2022/09/10 11:54:13;;;;;;;62.45;51.58;;;23.90;58.10;;;;;;5009084;27;91429;-59
2022/09/10 11:56:49;;;;;;;62.25;51.35;;;23.90;58.10;;;;;;5007556;28;90021;-59
2022/09/10 11:59:28;;;;;;;61.85;51.40;;;23.90;58.10;;;;;;5004025;27;95395;-56
2022/09/10 12:02:15;;;;;;;63.03;51.47;;;24.00;58.10;;;;;;5008106;28;96635;-57
2022/09/10 12:04:56;;;;;;;62.70;51.70;;;24.00;58.30;;;;;;5012411;28;91056;-57
2022/09/10 12:07:45;;;;;;;63.08;51.88;;;24.00;58.40;;;;;;5001024;27;91984;-58
2022/09/10 12:10:21;;;;;;;63.75;51.72;;;24.00;58.50;;;;;;5012676;27;91078;-55
2022/09/10 12:12:49;;;;;;;62.20;51.53;;;24.00;58.50;;;;;;4995288;27;91470;-59
2022/09/10 12:15:17;;;;;;;62.30;51.67;;;24.00;58.50;;;;;;5009711;28;90938;-56
2022/09/10 12:17:47;;;;;;;62.42;51.60;;;24.00;58.50;;;;;;4997684;27;90124;-57
2022/09/10 12:20:36;;;;;;;62.78;51.55;;;24.00;58.50;;;;;;5016815;27;92657;-57
2022/09/10 12:23:03;;;;;;;62.08;51.53;;;24.00;58.50;;;;;;5006774;27;91132;-56
2022/09/10 12:25:30;;;;;;;62.50;51.65;;;24.00;58.50;;;;;;5012032;27;95317;-57
2022/09/10 12:27:58;;;;;;;62.15;51.45;;;24.00;58.50;;;;;;5012756;28;92559;-57
2022/09/10 12:30:26;;;;;;;61.88;51.60;;;24.00;58.50;;;;;;5004092;28;95659;-55
2022/09/10 12:32:52;;;;;;;62.63;51.63;;;24.00;58.50;;;;;;5009463;27;93148;-56
2022/09/10 12:35:31;;;;;;;64.70;51.92;;;24.00;58.50;;;;;;5001203;28;89878;-56
2022/09/10 12:38:34;;;;;;;63.20;51.92;;;24.10;58.60;;;;;;4999505;28;91517;-55
2022/09/10 12:41:01;;;;;;;67.63;51.85;;;24.10;58.50;;;;;;4989438;28;95969;-57
2022/09/10 12:43:39;;;;;;;62.47;51.78;;;24.10;58.40;;;;;;5001096;28;90790;-57
2022/09/10 12:46:07;;;;;;;63.63;52.08;;;24.10;58.30;;;;;;5006455;27;90787;-57
2022/09/10 12:48:36;;;;;;;62.55;51.90;;;24.10;58.30;;;;;;5000055;27;96449;-58
2022/09/10 12:51:22;;;;;;;62.92;51.85;;;24.10;58.30;;;;;;5000578;28;91357;-57
2022/09/10 12:54:03;;;;;;;63.15;51.78;;;24.10;58.40;;;;;;4998795;27;91645;-57
2022/09/10 12:57:11;;;;;;;62.88;51.75;;;24.20;58.40;;;;;;5012405;28;92655;-56
2022/09/10 13:00:12;;;;;;;63.15;52.10;;;24.20;58.40;;;;;;5001554;27;93002;-57
2022/09/10 13:03:04;;;;;;;62.63;51.80;;;24.20;58.40;;;;;;5010566;28;91618;-57
2022/09/10 13:05:46;;;;;;;62.38;51.65;;;24.20;58.40;;;;;;5012162;27;91014;-57
2022/09/10 13:08:14;;;;;;;62.28;51.80;;;24.20;58.40;;;;;;5006227;27;90146;-58
2022/09/10 13:11:13;;;;;;;62.97;51.85;;;24.20;58.40;;;;;;5001765;28;91499;-56
2022/09/10 13:13:44;;;;;;;63.03;52.05;;;24.20;58.40;;;;;;5002459;28;91997;-60
2022/09/10 13:16:16;;;;;;;62.72;51.90;;;24.20;58.30;;;;;;5008829;28;90896;-58
2022/09/10 13:18:42;;;;;;;63.53;51.97;;;24.20;58.30;;;;;;5010209;27;92360;-57
2022/09/10 13:21:23;;;;;;;63.08;51.97;;;24.20;58.20;;;;;;5007483;28;92333;-58
2022/09/10 13:23:53;;;;;;;65.38;51.78;;;24.20;58.10;;;;;;5015524;28;91578;-57
2022/09/10 13:26:32;;;;;;;62.50;51.70;;;24.30;58.00;;;;;;5016135;27;90095;-58
2022/09/10 13:29:07;;;;;;;62.88;51.85;;;24.20;57.90;;;;;;5015038;28;90271;-58
2022/09/10 13:31:41;;;;;;;64.05;52.13;;;24.30;57.90;;;;;;5009571;27;89128;-57
2022/09/10 13:34:16;;;;;;;63.35;52.10;;;24.20;57.80;;;;;;5021523;27;90147;-56
2022/09/10 13:36:57;;;;;;;64.20;52.13;;;24.20;57.80;;;;;;5018427;28;91051;-58
2022/09/10 13:39:56;;;;;;;62.00;51.65;;;24.30;57.80;;;;;;5004369;27;92839;-58
2022/09/10 13:43:00;;;;;;;63.58;52.03;;;24.30;57.70;;;;;;4999900;28;96826;-58
2022/09/10 13:45:28;;;;;;;62.72;51.67;;;24.20;57.60;;;;;;5011097;28;92897;-58
2022/09/10 13:48:32;;;;;;;64.32;51.90;;;24.20;57.60;;;;;;5005395;27;91853;-56
2022/09/10 13:51:10;;;;;;;62.67;52.03;;;24.20;57.60;;;;;;5000733;28;90294;-58
2022/09/10 13:53:40;;;;;;;63.20;52.05;;;24.20;57.50;;;;;;5006845;28;91767;-58
2022/09/10 13:56:12;;;;;;;63.30;52.03;;;24.30;57.40;;;;;;5009885;28;91543;-58
2022/09/10 13:58:50;;;;;;;63.47;51.85;;;24.30;57.40;;;;;;5014604;28;90877;-58
2022/09/10 14:01:16;;;;;;;63.47;52.15;;;24.30;57.40;;;;;;5006501;27;91220;-58
2022/09/10 14:03:43;;;;;;;64.35;51.83;;;24.30;57.30;;;;;;5017071;28;90095;-56
2022/09/10 14:06:20;;;;;;;62.95;52.28;;;24.30;57.30;;;;;;4997932;27;92110;-58
2022/09/10 14:08:57;;;;;;;63.40;52.15;;;24.30;57.30;;;;;;5005852;27;90947;-57
2022/09/10 14:11:29;;;;;;;63.83;52.25;;;24.30;57.30;;;;;;5003051;28;90594;-56
2022/09/10 14:14:21;;;;;;;63.47;52.05;;;24.30;57.30;;;;;;5009529;28;92386;-56
2022/09/10 14:16:56;;;;;;;63.25;51.80;;;24.40;57.20;;;;;;5009133;27;91612;-58
2022/09/10 14:19:50;;;;;;;63.33;51.95;;;24.30;57.20;;;;;;5020324;28;91532;-57
2022/09/10 14:22:24;;;;;;;64.15;51.95;;;24.40;57.20;;;;;;5014644;28;93842;-58
2022/09/10 14:25:01;;;;;;;63.78;52.28;;;24.40;57.30;;;;;;5009307;28;92913;-57
2022/09/10 14:27:29;;;;;;;62.58;52.15;;;24.30;57.20;;;;;;5014017;27;92907;-58
2022/09/10 14:30:19;;;;;;;63.22;52.00;;;24.30;57.10;;;;;;5022635;28;91288;-58
2022/09/10 14:32:46;;;;;;;63.33;51.72;;;24.40;57.10;;;;;;5003101;28;93255;-58
2022/09/10 14:35:44;;;;;;;63.92;52.50;;;24.40;57.10;;;;;;5006419;27;95347;-57
2022/09/10 14:38:30;;;;;;;64.90;52.15;;;24.40;57.10;;;;;;5013073;27;91336;-59
2022/09/10 14:41:01;;;;;;;62.85;52.22;;;24.40;57.00;;;;;;5004376;27;93892;-58
2022/09/10 14:43:32;;;;;;;63.92;52.47;;;24.40;57.00;;;;;;5003600;28;92021;-58
2022/09/10 14:45:59;;;;;;;63.65;51.97;;;24.40;56.90;;;;;;5001941;28;96425;-58
2022/09/10 14:48:36;;;;;;;64.22;52.20;;;24.40;56.90;;;;;;5005740;27;92791;-59
2022/09/10 14:51:23;;;;;;;63.13;52.13;;;24.40;56.80;;;;;;5001121;27;90291;-59